Time;durP1;ratioP1;P1;durP2;ratioP2;P2;SDS_P1;SDS_P2;PMS_P1;PMS_P2;Temp;Humidity;BMP_temperature;BMP_pressure;BME280_temperature;BME280_humidity;BME280_pressure;Samples;Min_cycle;Max_cycle;Signal;HPM_P1;HPM_P2
2022/04/11 00:00:25;;;;;;;10.07;8.10;;;;;;;9.67;51.20;99480.53;4137095;28;20229;-30
2022/04/11 00:02:26;;;;;;;11.90;8.63;;;;;;;9.83;51.12;99511.66;4142692;28;20634;-30
2022/04/11 00:04:29;;;;;;;10.50;8.33;;;;;;;10.49;49.78;99445.38;4144990;28;20240;-30
2022/04/11 00:06:31;;;;;;;9.63;8.10;;;;;;;10.21;50.46;99475.75;4144424;28;20240;-32
2022/04/11 00:08:33;;;;;;;10.47;8.33;;;;;;;10.40;49.85;99458.66;4145180;28;20262;-31
2022/04/11 00:10:34;;;;;;;12.53;11.27;;;;;;;10.58;49.03;99425.75;4146240;28;20240;-30
2022/04/11 00:12:37;;;;;;;15.50;13.10;;;;;;;9.56;51.27;99459.59;4139301;28;20348;-31
2022/04/11 00:14:39;;;;;;;14.83;12.60;;;;;;;9.95;50.50;99467.88;4146545;28;20236;-29
2022/04/11 00:16:41;;;;;;;12.70;11.03;;;;;;;10.47;49.78;99440.22;4139885;28;20232;-29
2022/04/11 00:18:43;;;;;;;11.50;10.40;;;;;;;10.69;49.23;99416.63;4134265;28;20232;-31
2022/04/11 00:20:47;;;;;;;11.03;9.80;;;;;;;10.77;48.82;99409.47;4147218;28;20240;-31
2022/04/11 00:22:48;;;;;;;13.63;9.33;;;;;;;10.21;49.77;99445.66;4146414;28;20247;-32
2022/04/11 00:24:51;;;;;;;11.57;8.60;;;;;;;10.21;50.03;99457.16;4143420;28;20271;-31
2022/04/11 00:26:53;;;;;;;11.30;8.70;;;;;;;10.05;50.41;99449.97;4143035;28;20251;-30
2022/04/11 00:28:55;;;;;;;9.53;7.40;;;;;;;9.66;51.46;99461.13;4140049;28;20298;-30
2022/04/11 00:30:56;;;;;;;9.63;7.77;;;;;;;9.66;51.27;99460.31;4143396;28;20248;-31
2022/04/11 00:32:59;;;;;;;9.20;7.90;;;;;;;8.87;53.78;99493.97;4150319;28;20442;-30
2022/04/11 00:35:03;;;;;;;11.57;7.43;;;;;;;10.26;50.30;99438.03;4146653;28;20232;-30
2022/04/11 00:37:05;;;;;;;9.17;7.57;;;;;;;10.06;50.22;99448.16;4148513;28;20290;-32
2022/04/11 00:39:07;;;;;;;9.73;6.93;;;;;;;10.31;49.30;99406.47;4141614;28;20238;-32
2022/04/11 00:41:08;;;;;;;8.87;6.90;;;;;;;10.43;49.35;99414.94;4150582;28;20290;-30
2022/04/11 00:43:39;;;;;;;7.77;6.90;;;;;;;10.52;49.68;99426.44;4142278;28;20582;-31
2022/04/11 00:45:40;;;;;;;10.27;7.97;;;;;;;10.28;49.72;99432.56;4147625;28;20272;-33
2022/04/11 00:47:42;;;;;;;9.07;7.20;;;;;;;10.31;49.39;99421.59;4141106;28;20239;-30
2022/04/11 00:49:46;;;;;;;10.13;7.33;;;;;;;10.41;49.46;99430.22;4149424;28;20228;-30
2022/04/11 00:51:48;;;;;;;9.43;7.43;;;;;;;9.97;49.71;99407.44;4145496;28;20239;-29
2022/04/11 00:53:52;;;;;;;11.47;7.70;;;;;;;9.89;50.53;99447.25;4140897;28;20232;-32
2022/04/11 00:55:54;;;;;;;10.30;7.50;;;;;;;10.17;49.98;99447.81;4147947;28;20705;-32
2022/04/11 00:57:56;;;;;;;8.73;7.23;;;;;;;10.20;49.98;99447.50;4144205;28;20229;-30
2022/04/11 00:59:59;;;;;;;11.40;7.93;;;;;;;9.96;49.91;99415.56;4131113;28;20322;-31
2022/04/11 01:02:04;;;;;;;9.23;8.20;;;;;;;10.46;49.53;99417.28;4146028;28;20232;-29
2022/04/11 01:04:06;;;;;;;8.70;7.80;;;;;;;10.39;49.29;99409.13;4142146;28;20264;-32
2022/04/11 01:06:08;;;;;;;9.53;8.50;;;;;;;10.48;49.66;99417.13;4143806;28;20232;-31
2022/04/11 01:08:10;;;;;;;10.03;7.40;;;;;;;9.95;50.43;99425.38;4141866;28;20694;-32
2022/04/11 01:10:13;;;;;;;9.00;8.10;;;;;;;10.16;50.21;99434.69;4145087;28;20236;-32
2022/04/11 01:12:16;;;;;;;8.93;8.03;;;;;;;9.12;51.97;99416.25;4125717;28;20209;-32
2022/04/11 01:14:18;;;;;;;10.70;8.50;;;;;;;9.59;50.92;99438.06;4147320;28;20212;-30
2022/04/11 01:16:30;;;;;;;8.70;7.63;;;;;;;10.04;50.59;99444.81;4143023;28;20209;-29
2022/04/11 01:18:36;;;;;;;9.87;8.60;;;;;;;9.71;50.88;99442.06;4145000;28;20330;-30
2022/04/11 01:20:38;;;;;;;11.87;7.93;;;;;;;10.05;49.97;99420.75;4144811;28;20763;-30
2022/04/11 01:22:40;;;;;;;11.03;8.90;;;;;;;10.02;49.84;99420.25;4149225;28;20236;-31
2022/04/11 01:24:43;;;;;;;8.50;7.60;;;;;;;9.63;50.74;99421.63;4143015;28;20240;-31
2022/04/11 01:26:46;;;;;;;9.20;8.30;;;;;;;9.92;50.13;99431.00;4140350;28;20251;-32
2022/04/11 01:28:48;;;;;;;10.53;7.83;;;;;;;10.06;49.90;99437.53;4145969;28;20553;-29
2022/04/11 01:30:55;;;;;;;9.87;8.37;;;;;;;10.14;49.73;99421.56;4139431;28;20625;-30
2022/04/11 01:32:57;;;;;;;9.87;8.20;;;;;;;9.22;52.05;99473.69;4147050;28;20403;-32
2022/04/11 01:34:59;;;;;;;8.43;7.60;;;;;;;9.53;51.14;99436.81;4143096;28;20227;-30
2022/04/11 01:37:01;;;;;;;12.50;7.40;;;;;;;9.51;50.87;99426.38;4146518;28;20316;-31
2022/04/11 01:39:03;;;;;;;10.67;7.63;;;;;;;9.84;50.15;99399.97;4144909;28;20325;-30
2022/04/11 01:41:05;;;;;;;10.83;8.03;;;;;;;9.41;51.25;99432.81;4152046;28;20244;-33
2022/04/11 01:43:06;;;;;;;9.17;7.93;;;;;;;9.16;51.48;99419.41;4141548;28;20239;-29
2022/04/11 01:45:10;;;;;;;10.40;8.00;;;;;;;9.32;51.56;99447.84;4145781;28;20603;-31
2022/04/11 01:47:12;;;;;;;11.70;8.47;;;;;;;8.90;52.55;99430.06;4142233;28;20236;-29
2022/04/11 01:49:14;;;;;;;10.40;7.83;;;;;;;8.68;53.39;99466.66;4142026;28;20240;-30
2022/04/11 01:51:16;;;;;;;9.93;8.63;;;;;;;9.35;51.96;99426.28;4140948;28;20238;-31
2022/04/11 01:53:19;;;;;;;9.47;8.23;;;;;;;8.68;52.64;99432.22;4127438;28;20702;-31
2022/04/11 01:55:21;;;;;;;10.87;8.87;;;;;;;8.14;54.37;99457.88;4149198;28;20705;-30
2022/04/11 01:57:22;;;;;;;12.30;9.37;;;;;;;8.70;53.03;99424.94;4139662;28;20256;-30
2022/04/11 01:59:24;;;;;;;11.20;10.07;;;;;;;8.67;52.64;99414.63;4143620;28;20237;-30
2022/04/11 02:01:26;;;;;;;12.20;10.57;;;;;;;8.77;52.66;99404.75;4144405;28;20702;-32
2022/04/11 02:03:28;;;;;;;12.70;10.33;;;;;;;8.57;53.07;99417.38;4141178;28;20322;-30
2022/04/11 02:05:30;;;;;;;12.53;11.03;;;;;;;8.60;53.11;99413.59;4146320;28;20227;-33
2022/04/11 02:07:32;;;;;;;13.07;11.77;;;;;;;8.90;52.59;99388.44;4143072;28;20231;-33
2022/04/11 02:09:33;;;;;;;13.80;12.40;;;;;;;8.84;52.84;99391.72;4142212;28;20701;-32
2022/04/11 02:11:35;;;;;;;14.73;12.83;;;;;;;9.14;51.96;99369.16;4143452;28;20240;-31
2022/04/11 02:13:37;;;;;;;15.07;13.40;;;;;;;9.07;51.82;99369.97;4133587;28;20606;-33
2022/04/11 02:15:39;;;;;;;16.37;14.07;;;;;;;8.75;52.51;99390.84;4140717;28;20249;-30
2022/04/11 02:17:40;;;;;;;15.10;13.70;;;;;;;8.92;52.50;99383.00;4146222;28;20228;-32
2022/04/11 02:19:42;;;;;;;16.53;14.83;;;;;;;9.05;52.15;99370.13;4150744;28;20605;-30
2022/04/11 02:21:44;;;;;;;15.67;13.77;;;;;;;9.14;51.95;99371.00;4142398;28;20250;-31
2022/04/11 02:23:46;;;;;;;12.40;10.90;;;;;;;8.69;52.40;99370.25;4142423;28;20228;-30
2022/04/11 02:25:48;;;;;;;12.90;11.57;;;;;;;8.79;52.38;99382.56;4143976;28;20319;-30
2022/04/11 02:27:50;;;;;;;11.70;10.50;;;;;;;9.00;52.54;99376.88;4135969;28;20268;-31
2022/04/11 02:29:52;;;;;;;12.03;9.37;;;;;;;8.47;53.27;99400.72;4140995;28;20230;-30
2022/04/11 02:31:54;;;;;;;11.03;9.90;;;;;;;8.54;53.27;99399.16;4145373;28;20249;-30
2022/04/11 02:33:55;;;;;;;10.40;9.27;;;;;;;8.34;53.70;99393.19;4142125;28;20294;-32
2022/04/11 02:35:57;;;;;;;11.23;10.10;;;;;;;8.69;52.98;99382.69;4142335;28;20234;-30
2022/04/11 02:37:59;;;;;;;11.50;9.40;;;;;;;9.08;52.23;99337.13;4144273;28;20224;-31
2022/04/11 02:40:02;;;;;;;12.00;9.80;;;;;;;8.98;52.18;99358.50;4143500;28;20234;-31
2022/04/11 02:42:04;;;;;;;10.40;9.30;;;;;;;8.63;52.72;99359.47;4143405;28;20557;-31
2022/04/11 02:44:06;;;;;;;10.17;9.07;;;;;;;8.23;54.03;99401.34;4141937;28;20514;-32
2022/04/11 02:46:08;;;;;;;11.33;9.87;;;;;;;8.46;53.35;99364.66;4138192;28;20767;-32
2022/04/11 02:48:10;;;;;;;12.53;10.00;;;;;;;8.29;54.03;99374.25;4140136;28;20293;-33
2022/04/11 02:50:12;;;;;;;12.50;10.37;;;;;;;8.11;54.33;99384.84;4151704;28;20203;-32
2022/04/11 02:52:14;;;;;;;11.93;9.80;;;;;;;8.17;54.05;99370.16;4141658;28;20445;-33
2022/04/11 02:54:16;;;;;;;10.83;9.57;;;;;;;8.50;52.71;99341.31;4131996;28;20216;-32
2022/04/11 02:56:18;;;;;;;12.07;9.60;;;;;;;9.10;51.99;99309.47;4148231;28;20209;-31
2022/04/11 02:58:20;;;;;;;14.53;9.33;;;;;;;8.90;51.97;99330.13;4139524;28;20211;-31
2022/04/11 03:00:21;;;;;;;12.23;9.60;;;;;;;8.53;52.76;99352.44;4136722;28;20233;-31
2022/04/11 03:02:24;;;;;;;13.33;9.70;;;;;;;8.69;52.65;99345.56;4143882;28;20206;-32
2022/04/11 03:04:26;;;;;;;13.10;11.80;;;;;;;8.71;52.41;99336.47;4142137;28;20247;-33
2022/04/11 03:06:28;;;;;;;12.17;10.03;;;;;;;8.71;52.35;99336.47;4141584;28;20246;-31
2022/04/11 03:08:30;;;;;;;16.67;12.10;;;;;;;8.55;52.69;99336.38;4139617;28;20246;-32
2022/04/11 03:10:31;;;;;;;12.53;10.47;;;;;;;8.58;52.70;99349.31;4139625;28;20264;-33
2022/04/11 03:12:33;;;;;;;11.10;9.93;;;;;;;8.31;53.16;99360.84;4143947;28;20233;-32
2022/04/11 03:14:35;;;;;;;13.30;10.47;;;;;;;7.98;53.77;99348.16;4139026;28;20265;-32
2022/04/11 03:16:37;;;;;;;12.77;11.13;;;;;;;8.07;53.63;99357.03;4140353;28;20452;-30
2022/04/11 03:18:40;;;;;;;15.17;12.00;;;;;;;7.95;54.06;99367.00;4142164;28;20237;-32
2022/04/11 03:20:42;;;;;;;11.50;9.73;;;;;;;7.90;54.05;99353.41;4143584;28;20389;-32
2022/04/11 03:22:43;;;;;;;10.37;8.67;;;;;;;8.19;53.42;99321.38;4145879;28;20238;-31
2022/04/11 03:24:45;;;;;;;11.20;8.80;;;;;;;8.26;53.17;99318.13;4145539;28;20545;-31
2022/04/11 03:26:47;;;;;;;11.17;8.80;;;;;;;7.87;54.11;99347.56;4140708;28;20281;-31
2022/04/11 03:28:48;;;;;;;9.97;8.70;;;;;;;7.73;54.58;99362.16;4144240;28;20436;-32
2022/04/11 03:30:50;;;;;;;10.67;9.23;;;;;;;8.12;53.56;99324.78;4143609;28;20242;-33
2022/04/11 03:32:52;;;;;;;11.47;8.80;;;;;;;8.17;53.44;99336.59;4143189;28;20242;-33
2022/04/11 03:34:53;;;;;;;9.57;8.67;;;;;;;7.88;53.98;99357.16;4139670;28;20719;-33
2022/04/11 03:36:55;;;;;;;11.13;8.60;;;;;;;7.70;53.84;99354.50;4144059;28;20242;-32
2022/04/11 03:38:57;;;;;;;10.23;9.23;;;;;;;7.95;53.70;99350.28;4140702;28;20242;-33
2022/04/11 03:40:59;;;;;;;11.03;9.87;;;;;;;7.73;54.28;99373.59;4142575;28;20340;-33
2022/04/11 03:43:01;;;;;;;10.13;9.07;;;;;;;7.20;55.19;99372.47;4137846;28;20226;-33
2022/04/11 03:45:04;;;;;;;13.63;9.13;;;;;;;7.05;55.54;99381.88;4139283;28;20234;-33
2022/04/11 03:47:06;;;;;;;12.30;9.93;;;;;;;7.59;54.34;99350.28;4143949;28;20230;-32
2022/04/11 03:49:08;;;;;;;14.10;9.90;;;;;;;7.73;54.17;99333.03;4140796;28;20542;-31
2022/04/11 03:51:09;;;;;;;11.40;10.20;;;;;;;7.73;54.24;99333.03;4141603;28;20612;-31
2022/04/11 03:53:12;;;;;;;11.60;8.63;;;;;;;8.01;53.61;99305.50;4142611;28;20225;-33
2022/04/11 03:55:14;;;;;;;12.13;9.83;;;;;;;8.63;52.32;99270.16;4142197;28;20227;-32
2022/04/11 03:57:15;;;;;;;13.07;8.87;;;;;;;7.91;53.99;99341.00;4138714;28;20293;-32
2022/04/11 03:59:17;;;;;;;11.77;9.20;;;;;;;8.52;52.60;99297.75;4147068;28;20280;-32
2022/04/11 04:01:19;;;;;;;12.23;8.77;;;;;;;8.83;51.81;99272.56;4143205;28;20289;-33
2022/04/11 04:03:21;;;;;;;10.90;9.70;;;;;;;8.74;51.72;99283.16;4149386;28;20263;-33
2022/04/11 04:05:22;;;;;;;10.83;9.70;;;;;;;8.68;51.82;99288.25;4147239;28;20232;-33
2022/04/11 04:07:24;;;;;;;11.33;9.60;;;;;;;8.75;51.68;99292.75;4144490;28;20715;-31
2022/04/11 04:09:26;;;;;;;10.70;9.30;;;;;;;8.34;52.59;99328.78;4151371;28;20361;-31
2022/04/11 04:11:27;;;;;;;10.67;9.00;;;;;;;8.29;52.83;99336.31;4137544;28;20278;-32
2022/04/11 04:13:29;;;;;;;10.80;9.70;;;;;;;8.14;52.72;99338.72;4149661;28;20233;-32
2022/04/11 04:15:31;;;;;;;13.57;9.77;;;;;;;7.93;53.51;99344.31;4141210;28;20306;-33
2022/04/11 04:17:33;;;;;;;10.10;8.53;;;;;;;8.05;53.44;99348.38;4144543;28;20236;-32
2022/04/11 04:19:39;;;;;;;11.63;9.60;;;;;;;8.17;52.91;99333.09;4143413;28;20341;-32
2022/04/11 04:21:41;;;;;;;10.63;9.43;;;;;;;8.16;52.98;99324.31;4143520;28;20235;-30
2022/04/11 04:23:42;;;;;;;10.80;9.20;;;;;;;8.53;52.30;99301.25;4145406;28;20231;-33
2022/04/11 04:25:44;;;;;;;12.03;9.20;;;;;;;8.35;52.45;99312.72;4143507;28;20693;-33
2022/04/11 04:27:46;;;;;;;10.60;9.43;;;;;;;7.73;53.77;99339.19;4148181;28;20654;-32
2022/04/11 04:29:48;;;;;;;11.70;9.87;;;;;;;7.87;53.58;99342.25;4141943;28;20251;-32
2022/04/11 04:31:50;;;;;;;12.43;10.90;;;;;;;8.13;53.06;99319.31;4140537;28;20740;-32
2022/04/11 04:33:52;;;;;;;11.07;9.60;;;;;;;8.10;53.13;99329.41;4147274;28;20237;-33
2022/04/11 04:35:54;;;;;;;11.33;10.00;;;;;;;8.25;52.89;99313.78;4143837;28;20272;-32
2022/04/11 04:37:55;;;;;;;11.87;10.60;;;;;;;7.96;52.96;99315.72;4142356;28;20263;-32
2022/04/11 04:39:57;;;;;;;14.53;12.17;;;;;;;7.88;53.45;99342.09;4140551;28;20510;-32
2022/04/11 04:41:59;;;;;;;15.50;11.73;;;;;;;7.93;53.63;99326.59;4142041;28;20236;-32
2022/04/11 04:44:01;;;;;;;13.77;11.13;;;;;;;7.79;53.45;99329.78;4143632;28;20239;-32
2022/04/11 04:46:02;;;;;;;17.33;12.33;;;;;;;7.87;53.74;99331.66;4153778;28;20230;-31
2022/04/11 04:48:06;;;;;;;14.30;11.40;;;;;;;7.77;54.12;99327.31;4124954;28;20329;-32
2022/04/11 04:50:08;;;;;;;15.27;12.53;;;;;;;8.22;52.71;99299.03;4146265;28;20226;-32
2022/04/11 04:52:10;;;;;;;14.57;12.80;;;;;;;7.75;53.74;99333.72;4140275;28;20645;-32
2022/04/11 04:54:12;;;;;;;15.00;13.40;;;;;;;7.81;53.45;99325.19;4147773;28;20676;-32
2022/04/11 04:56:13;;;;;;;14.00;12.30;;;;;;;7.64;54.29;99334.78;4147987;28;20261;-31
2022/04/11 04:58:15;;;;;;;15.07;13.37;;;;;;;7.51;54.37;99342.25;4138255;28;20548;-33
2022/04/11 05:00:17;;;;;;;13.37;11.50;;;;;;;8.19;52.76;99288.75;4143752;28;20688;-32
2022/04/11 05:02:19;;;;;;;15.03;11.30;;;;;;;7.99;53.29;99310.13;4145654;28;20202;-31
2022/04/11 05:04:21;;;;;;;17.53;11.17;;;;;;;7.72;53.49;99326.09;4149935;28;20217;-32
2022/04/11 05:06:23;;;;;;;14.53;10.83;;;;;;;7.75;53.68;99323.13;4145794;28;20719;-32
2022/04/11 05:08:24;;;;;;;14.27;11.27;;;;;;;7.79;53.56;99316.56;4141634;28;20233;-32
2022/04/11 05:10:26;;;;;;;13.40;12.00;;;;;;;7.60;54.12;99341.38;4144243;28;20300;-32
2022/04/11 05:12:28;;;;;;;13.27;10.87;;;;;;;7.65;53.83;99331.16;4145785;28;20250;-32
2022/04/11 05:14:29;;;;;;;14.30;11.40;;;;;;;7.21;54.60;99333.63;4143418;28;20284;-33
2022/04/11 05:16:31;;;;;;;12.80;10.30;;;;;;;7.34;54.72;99338.59;4140497;28;20619;-31
2022/04/11 05:18:33;;;;;;;13.53;11.47;;;;;;;7.33;54.41;99323.69;4145518;28;20226;-33
2022/04/11 05:20:35;;;;;;;12.87;11.47;;;;;;;7.42;54.62;99322.81;4146306;28;20236;-32
2022/04/11 05:22:37;;;;;;;14.03;10.83;;;;;;;7.39;54.74;99334.50;4148477;28;20241;-32
2022/04/11 05:24:38;;;;;;;13.30;11.90;;;;;;;7.60;54.05;99313.09;4143106;28;20238;-33
2022/04/11 05:26:40;;;;;;;16.67;12.73;;;;;;;7.78;53.70;99304.31;4136238;28;20292;-31
2022/04/11 05:28:41;;;;;;;15.47;13.20;;;;;;;8.02;53.39;99288.63;4143181;28;20242;-32
2022/04/11 05:30:43;;;;;;;14.73;11.30;;;;;;;7.84;53.51;99311.66;4142892;28;20238;-32
2022/04/11 05:32:45;;;;;;;12.50;11.20;;;;;;;7.69;53.80;99329.88;4141647;28;20230;-32
2022/04/11 05:34:47;;;;;;;13.50;11.07;;;;;;;7.78;53.68;99315.75;4143489;28;20234;-31
2022/04/11 05:36:48;;;;;;;14.17;11.87;;;;;;;7.21;54.82;99331.84;4126285;28;20302;-32
2022/04/11 05:38:50;;;;;;;13.10;11.43;;;;;;;7.63;54.31;99319.88;4138321;28;20235;-32
2022/04/11 05:40:51;;;;;;;14.30;12.37;;;;;;;7.45;54.78;99338.38;4143819;28;20234;-32
2022/04/11 05:42:54;;;;;;;14.43;12.97;;;;;;;7.09;55.57;99355.00;4145939;28;20665;-32
2022/04/11 05:44:55;;;;;;;12.60;11.30;;;;;;;7.47;54.86;99331.13;4152392;28;20245;-32
2022/04/11 05:46:57;;;;;;;15.53;12.80;;;;;;;7.49;54.90;99329.16;4145433;28;20721;-32
2022/04/11 05:48:59;;;;;;;13.63;11.43;;;;;;;7.49;54.92;99333.63;4142279;28;20239;-32
2022/04/11 05:51:00;;;;;;;13.97;12.10;;;;;;;8.38;53.26;99267.38;4143273;28;20248;-32
2022/04/11 05:53:02;;;;;;;13.83;10.70;;;;;;;8.19;53.66;99299.34;4147141;28;20257;-32
2022/04/11 05:55:05;;;;;;;12.93;11.00;;;;;;;8.05;53.94;99310.50;4140949;28;20341;-31
2022/04/11 05:57:06;;;;;;;14.73;11.80;;;;;;;8.23;53.50;99300.69;4139824;28;20598;-31
2022/04/11 05:59:08;;;;;;;13.80;9.87;;;;;;;7.92;54.26;99327.59;4145353;28;20601;-32
2022/04/11 06:01:10;;;;;;;14.40;11.20;;;;;;;8.51;53.15;99288.16;4142506;28;20240;-31
2022/04/11 06:03:12;;;;;;;12.87;10.37;;;;;;;8.64;52.84;99268.34;4142500;28;20225;-32
2022/04/11 06:05:14;;;;;;;13.93;10.53;;;;;;;8.44;53.28;99292.44;4143274;28;20330;-32
2022/04/11 06:07:20;;;;;;;12.77;11.47;;;;;;;8.61;52.62;99261.56;4136590;28;20237;-32
2022/04/11 06:09:22;;;;;;;13.13;10.40;;;;;;;8.24;53.57;99296.22;4143489;28;20234;-32
2022/04/11 06:11:24;;;;;;;17.67;11.37;;;;;;;8.24;53.80;99305.03;4139221;28;20292;-31
2022/04/11 06:13:25;;;;;;;11.73;10.30;;;;;;;8.40;53.51;99312.25;4142793;28;20235;-32
2022/04/11 06:15:27;;;;;;;12.53;11.20;;;;;;;7.97;54.53;99308.63;4148401;28;20642;-32
2022/04/11 06:17:29;;;;;;;14.77;10.80;;;;;;;7.89;55.49;99335.84;4148174;28;20701;-32
2022/04/11 06:19:31;;;;;;;13.60;10.47;;;;;;;8.21;54.58;99315.91;4139941;28;20359;-32
2022/04/11 06:21:32;;;;;;;13.87;10.67;;;;;;;7.92;55.35;99309.06;4146640;28;20236;-31
2022/04/11 06:23:34;;;;;;;13.10;10.67;;;;;;;8.32;55.22;99291.88;4145948;28;20239;-33
2022/04/11 06:25:36;;;;;;;12.43;9.80;;;;;;;7.97;55.30;99312.09;4147766;28;20426;-33
2022/04/11 06:27:38;;;;;;;11.60;10.03;;;;;;;8.27;55.22;99306.50;4141085;28;20231;-32
2022/04/11 06:29:39;;;;;;;11.63;10.37;;;;;;;8.57;54.43;99282.22;4142118;28;20245;-31
2022/04/11 06:31:41;;;;;;;14.77;11.80;;;;;;;8.31;55.16;99318.47;4140267;28;20243;-32
2022/04/11 06:33:43;;;;;;;13.63;11.33;;;;;;;8.05;55.69;99323.72;4124735;28;20286;-31
2022/04/11 06:35:51;;;;;;;14.50;10.53;;;;;;;8.28;55.54;99318.78;4140452;28;20242;-32
2022/04/11 06:37:53;;;;;;;13.63;10.67;;;;;;;8.97;53.83;99241.97;4141681;28;20589;-33
2022/04/11 06:39:55;;;;;;;11.70;9.60;;;;;;;8.87;54.18;99268.63;4143061;28;20236;-32
2022/04/11 06:41:57;;;;;;;12.10;9.80;;;;;;;8.87;54.13;99242.09;4142683;28;20290;-32
2022/04/11 06:43:58;;;;;;;12.43;10.60;;;;;;;8.52;55.20;99279.22;4144488;28;20285;-32
2022/04/11 06:46:00;;;;;;;11.37;9.63;;;;;;;8.02;55.61;99269.28;4145751;28;20232;-33
2022/04/11 06:48:03;;;;;;;10.90;9.80;;;;;;;8.37;55.87;99302.81;4142670;28;20709;-33
2022/04/11 06:50:05;;;;;;;12.63;9.87;;;;;;;8.36;54.96;99284.44;4143502;28;20697;-31
2022/04/11 06:52:07;;;;;;;10.23;9.23;;;;;;;8.60;55.52;99293.50;4135048;28;20293;-33
2022/04/11 06:54:09;;;;;;;10.40;9.30;;;;;;;8.93;54.14;99254.75;4143074;28;20236;-33
2022/04/11 06:56:11;;;;;;;16.13;9.77;;;;;;;9.20;54.07;99263.41;4144655;28;20233;-33
2022/04/11 06:58:16;;;;;;;15.80;10.27;;;;;;;8.97;54.36;99255.25;4148095;28;20238;-32
2022/04/11 07:00:18;;;;;;;29.03;9.83;;;;;;;8.92;53.90;99269.78;4140991;28;20224;-31
2022/04/11 07:02:21;;;;;;;14.10;9.07;;;;;;;9.28;53.67;99240.41;4140974;28;20209;-33
2022/04/11 07:04:23;;;;;;;17.47;9.33;;;;;;;9.72;52.97;99217.22;4138005;28;20303;-32
2022/04/11 07:06:24;;;;;;;9.07;8.17;;;;;;;9.42;53.74;99235.44;4138109;28;20210;-32
2022/04/11 07:08:26;;;;;;;12.23;8.57;;;;;;;9.76;53.27;99219.41;4142395;28;20252;-31
2022/04/11 07:10:28;;;;;;;13.60;8.30;;;;;;;9.83;53.55;99235.50;4144906;28;20239;-32
2022/04/11 07:12:29;;;;;;;12.50;8.60;;;;;;;9.61;53.92;99252.91;4146432;28;20239;-32
2022/04/11 07:14:31;;;;;;;11.87;8.33;;;;;;;9.88;53.59;99231.31;4145125;28;20275;-32
2022/04/11 07:16:39;;;;;;;11.43;7.93;;;;;;;9.36;53.81;99236.91;4143370;28;20232;-32
2022/04/11 07:18:41;;;;;;;11.53;7.83;;;;;;;10.42;51.59;99198.00;4139063;28;20582;-32
2022/04/11 07:20:43;;;;;;;9.60;7.90;;;;;;;9.72;53.21;99249.91;4147517;28;20246;-31
2022/04/11 07:22:45;;;;;;;10.47;8.87;;;;;;;9.91;52.98;99231.97;4142371;28;20241;-32
2022/04/11 07:24:46;;;;;;;13.70;7.27;;;;;;;10.62;51.42;99195.78;4131229;28;20237;-31
2022/04/11 07:26:48;;;;;;;10.70;7.63;;;;;;;9.90;53.16;99243.63;4151126;28;20290;-32
2022/04/11 07:28:50;;;;;;;11.20;7.50;;;;;;;11.01;51.20;99202.94;4141510;28;20255;-32
2022/04/11 07:30:52;;;;;;;9.50;7.23;;;;;;;10.34;52.27;99243.22;4148340;28;20619;-33
2022/04/11 07:32:54;;;;;;;8.93;7.03;;;;;;;9.96;53.32;99274.81;4142339;28;20247;-33
2022/04/11 07:34:59;;;;;;;11.33;7.70;;;;;;;10.87;51.11;99228.44;4143338;28;20245;-32
2022/04/11 07:37:01;;;;;;;8.90;6.80;;;;;;;11.12;50.57;99205.19;4145741;28;20729;-33
2022/04/11 07:39:02;;;;;;;9.87;6.80;;;;;;;10.65;51.71;99239.78;4145193;28;20227;-32
2022/04/11 07:41:04;;;;;;;8.50;7.23;;;;;;;10.89;51.70;99209.66;4144009;28;20241;-32
2022/04/11 07:43:06;;;;;;;14.07;7.33;;;;;;;10.00;53.05;99266.34;4143363;28;20225;-31
2022/04/11 07:45:08;;;;;;;8.60;7.10;;;;;;;10.32;51.97;99229.28;4144762;28;20227;-32
2022/04/11 07:47:10;;;;;;;10.00;6.93;;;;;;;11.47;50.45;99207.44;4130108;28;20593;-31
2022/04/11 07:49:12;;;;;;;9.50;6.37;;;;;;;10.89;52.15;99202.50;4142786;28;20237;-31
2022/04/11 07:51:14;;;;;;;11.20;6.33;;;;;;;11.68;49.67;99183.66;4143416;28;20717;-34
2022/04/11 07:53:15;;;;;;;7.03;5.60;;;;;;;11.48;49.51;99162.00;4145082;28;20589;-32
2022/04/11 07:55:17;;;;;;;8.73;5.70;;;;;;;11.64;49.61;99171.69;4140752;28;20624;-40
2022/04/11 07:57:19;;;;;;;11.27;6.27;;;;;;;12.16;48.68;99148.72;4147068;28;20224;-31
2022/04/11 07:59:41;;;;;;;10.53;6.03;;;;;;;11.75;49.68;99191.75;4143631;28;20815;-33
2022/04/11 08:01:43;;;;;;;8.17;5.67;;;;;;;12.13;48.72;99180.25;4144764;28;20240;-33
2022/04/11 08:03:44;;;;;;;7.17;5.80;;;;;;;11.96;48.83;99168.94;4143294;28;20264;-32
2022/04/11 08:05:47;;;;;;;7.00;5.57;;;;;;;12.20;48.38;99175.81;4143212;28;20736;-30
2022/04/11 08:07:49;;;;;;;10.23;5.23;;;;;;;10.45;52.03;99221.59;4138825;28;20229;-32
2022/04/11 08:09:50;;;;;;;8.37;5.30;;;;;;;12.33;48.61;99188.53;4145211;28;20682;-33
2022/04/11 08:11:52;;;;;;;7.23;5.40;;;;;;;11.98;47.21;99130.41;4153749;28;20241;-33
2022/04/11 08:13:54;;;;;;;6.17;5.03;;;;;;;11.98;49.56;99167.72;4143700;28;20233;-31
2022/04/11 08:15:55;;;;;;;6.97;4.60;;;;;;;12.74;47.52;99167.50;4148222;28;20233;-33
2022/04/11 08:17:58;;;;;;;6.67;4.97;;;;;;;12.28;47.14;99130.41;4145807;28;20672;-31
2022/04/11 08:20:00;;;;;;;7.53;4.90;;;;;;;12.74;47.61;99158.66;4143283;28;20229;-33
2022/04/11 08:22:01;;;;;;;8.53;4.77;;;;;;;13.27;46.53;99148.59;4148094;28;20686;-33
2022/04/11 08:24:04;;;;;;;5.20;4.43;;;;;;;12.98;46.35;99101.50;4144865;28;20233;-32
2022/04/11 08:26:06;;;;;;;7.30;4.70;;;;;;;13.29;46.91;99138.53;4148522;28;20289;-32
2022/04/11 08:28:07;;;;;;;6.37;4.30;;;;;;;12.93;47.26;99122.59;4142334;28;20217;-33
2022/04/11 08:30:12;;;;;;;5.47;4.33;;;;;;;12.61;47.23;99124.69;4144527;28;20291;-32
2022/04/11 08:32:14;;;;;;;6.17;4.23;;;;;;;12.54;47.14;99159.28;4145462;28;20401;-33
2022/04/11 08:34:16;;;;;;;7.57;4.30;;;;;;;11.60;47.88;99181.03;4148837;28;20408;-32
2022/04/11 08:36:19;;;;;;;4.87;4.23;;;;;;;12.56;47.89;99159.09;4141900;28;20201;-33
2022/04/11 08:38:21;;;;;;;5.43;3.83;;;;;;;12.48;47.25;99117.34;4128834;28;20201;-33
2022/04/11 08:40:22;;;;;;;4.93;4.03;;;;;;;12.37;47.09;99163.13;4151871;28;20258;-31
2022/04/11 08:42:25;;;;;;;7.33;4.10;;;;;;;13.75;44.72;99119.41;4143686;28;20210;-32
2022/04/11 08:44:28;;;;;;;4.97;4.00;;;;;;;13.92;44.65;99129.78;4150281;28;20241;-32
2022/04/11 08:46:30;;;;;;;8.10;4.40;;;;;;;13.67;44.35;99092.81;4142157;28;20291;-32
2022/04/11 08:48:33;;;;;;;4.87;3.50;;;;;;;14.17;43.41;99129.31;4145228;28;20706;-32
2022/04/11 08:50:35;;;;;;;5.30;4.17;;;;;;;13.19;45.48;99112.16;4144655;28;20237;-32
2022/04/11 08:52:37;;;;;;;5.57;3.70;;;;;;;14.20;45.31;99099.53;4143326;28;20229;-32
2022/04/11 08:54:39;;;;;;;5.63;3.50;;;;;;;14.35;43.61;99078.00;4145225;28;20328;-32
2022/04/11 08:56:41;;;;;;;6.80;3.60;;;;;;;12.94;45.43;99089.53;4148591;28;20236;-32
2022/04/11 08:58:43;;;;;;;5.80;3.50;;;;;;;13.00;45.91;99118.16;4140300;28;20237;-32
2022/04/11 09:00:45;;;;;;;6.63;3.67;;;;;;;13.49;45.02;99090.63;4145159;28;20241;-32
2022/04/11 09:02:47;;;;;;;5.17;3.73;;;;;;;13.29;46.69;99119.03;4141097;28;20240;-32
2022/04/11 09:04:55;;;;;;;5.63;3.60;;;;;;;14.39;43.12;99084.56;4143057;28;20780;-32
2022/04/11 09:06:57;;;;;;;5.60;3.97;;;;;;;13.40;45.70;99119.34;4144056;28;20238;-32
2022/04/11 09:08:58;;;;;;;5.83;3.27;;;;;;;13.20;44.27;99147.72;4145301;28;20252;-32
2022/04/11 09:11:00;;;;;;;6.87;3.23;;;;;;;14.06;45.03;99115.50;4144726;28;20237;-32
2022/04/11 09:13:04;;;;;;;5.17;3.60;;;;;;;14.96;43.05;99069.91;4140909;28;20255;-32
2022/04/11 09:15:06;;;;;;;4.53;3.30;;;;;;;15.22;42.03;99060.25;4142134;28;20358;-32
2022/04/11 09:17:11;;;;;;;4.93;3.73;;;;;;;13.46;45.08;99111.56;4147423;28;20802;-32
2022/04/11 09:19:22;;;;;;;5.97;3.20;;;;;;;13.30;44.30;99088.63;4143993;28;20229;-32
2022/04/11 09:21:44;;;;;;;4.53;3.23;;;;;;;13.97;43.39;99081.91;4147255;28;20316;-32
2022/04/11 09:23:47;;;;;;;5.77;3.00;;;;;;;15.13;42.83;99059.63;4140846;28;20710;-32
2022/04/11 09:25:49;;;;;;;4.10;3.40;;;;;;;15.25;41.93;99043.78;4141780;28;20733;-32
2022/04/11 09:28:10;;;;;;;3.90;3.20;;;;;;;15.12;43.58;99051.81;4145323;28;20717;-32
2022/04/11 09:30:33;;;;;;;5.57;3.07;;;;;;;15.18;42.05;99029.56;4143310;28;20227;-32
2022/04/11 09:32:34;;;;;;;5.70;3.43;;;;;;;15.47;42.34;99028.28;4144868;28;20248;-32
2022/04/11 09:34:37;;;;;;;3.33;3.03;;;;;;;14.97;41.92;99012.69;4141525;28;20292;-32